Terminal Aerodrome Forecast
Issued by NWS Twin Cities, MN

Home | Current Version | Previous Version | Text Only | Print | Product List | Glossary On
Versions: 1 2 3 4 5 6 7 8 9 10 11 12 13 14 15 16
000
FTUS43 KMPX 301121
TAFSTC
TAF
KSTC 301121Z 3012/3112 00000KT P6SM SKC
     FM301800 14005KT P6SM SCT070
      TEMPO 3110/3112 3SM BR BKN050=

USA.gov is the U.S. government's official web portal to all federal, state and local government web resources and services.